sensor_id;sensor_type;location;lat;lon;timestamp;temperature;humidity
19437;DHT22;9854;50.968;4.168;2023-10-31T00:01:04;11.60;99.90
19437;DHT22;9854;50.968;4.168;2023-10-31T00:03:30;11.70;99.90
19437;DHT22;9854;50.968;4.168;2023-10-31T00:05:56;11.70;99.90
19437;DHT22;9854;50.968;4.168;2023-10-31T00:08:21;11.70;99.90
19437;DHT22;9854;50.968;4.168;2023-10-31T00:10:47;11.60;99.90
19437;DHT22;9854;50.968;4.168;2023-10-31T00:13:13;11.70;99.90
19437;DHT22;9854;50.968;4.168;2023-10-31T00:15:38;11.70;99.90
19437;DHT22;9854;50.968;4.168;2023-10-31T00:18:04;11.70;99.90
19437;DHT22;9854;50.968;4.168;2023-10-31T00:20:30;11.60;99.90
19437;DHT22;9854;50.968;4.168;2023-10-31T00:22:55;11.70;99.90
19437;DHT22;9854;50.968;4.168;2023-10-31T00:25:21;11.70;99.90
19437;DHT22;9854;50.968;4.168;2023-10-31T00:27:47;11.60;99.90
19437;DHT22;9854;50.968;4.168;2023-10-31T00:30:12;11.70;99.90
19437;DHT22;9854;50.968;4.168;2023-10-31T00:32:38;11.70;99.90
19437;DHT22;9854;50.968;4.168;2023-10-31T00:35:04;11.80;99.90
19437;DHT22;9854;50.968;4.168;2023-10-31T00:37:30;11.70;99.90
19437;DHT22;9854;50.968;4.168;2023-10-31T00:39:55;11.80;99.90
19437;DHT22;9854;50.968;4.168;2023-10-31T00:42:21;11.80;99.90
19437;DHT22;9854;50.968;4.168;2023-10-31T00:44:46;11.80;99.90
19437;DHT22;9854;50.968;4.168;2023-10-31T00:47:12;11.80;99.90
19437;DHT22;9854;50.968;4.168;2023-10-31T00:49:38;11.80;99.90
19437;DHT22;9854;50.968;4.168;2023-10-31T00:52:03;11.80;99.90
19437;DHT22;9854;50.968;4.168;2023-10-31T00:54:29;11.80;99.90
19437;DHT22;9854;50.968;4.168;2023-10-31T00:56:55;11.70;99.90
19437;DHT22;9854;50.968;4.168;2023-10-31T00:59:20;11.70;99.90
19437;DHT22;9854;50.968;4.168;2023-10-31T01:01:46;11.80;99.90
19437;DHT22;9854;50.968;4.168;2023-10-31T01:04:12;11.70;99.90
19437;DHT22;9854;50.968;4.168;2023-10-31T01:06:43;11.70;99.90
19437;DHT22;9854;50.968;4.168;2023-10-31T01:09:09;11.70;99.90
19437;DHT22;9854;50.968;4.168;2023-10-31T01:11:35;11.70;99.90
19437;DHT22;9854;50.968;4.168;2023-10-31T01:14:01;11.70;99.90
19437;DHT22;9854;50.968;4.168;2023-10-31T01:16:27;11.70;99.90
19437;DHT22;9854;50.968;4.168;2023-10-31T01:18:52;11.70;99.90
19437;DHT22;9854;50.968;4.168;2023-10-31T01:21:18;11.70;99.90
19437;DHT22;9854;50.968;4.168;2023-10-31T01:23:44;11.60;99.90
19437;DHT22;9854;50.968;4.168;2023-10-31T01:26:09;11.60;99.90
19437;DHT22;9854;50.968;4.168;2023-10-31T01:28:35;11.60;99.90
19437;DHT22;9854;50.968;4.168;2023-10-31T01:31:01;11.50;99.90
19437;DHT22;9854;50.968;4.168;2023-10-31T01:33:26;11.60;99.90
19437;DHT22;9854;50.968;4.168;2023-10-31T01:35:52;11.80;99.90
19437;DHT22;9854;50.968;4.168;2023-10-31T01:38:17;11.70;99.90
19437;DHT22;9854;50.968;4.168;2023-10-31T01:40:43;11.50;99.90
19437;DHT22;9854;50.968;4.168;2023-10-31T01:43:09;11.40;99.90
19437;DHT22;9854;50.968;4.168;2023-10-31T01:45:34;11.60;99.90
19437;DHT22;9854;50.968;4.168;2023-10-31T01:48:00;11.40;99.90
19437;DHT22;9854;50.968;4.168;2023-10-31T01:50:26;11.40;99.90
19437;DHT22;9854;50.968;4.168;2023-10-31T01:52:53;11.50;99.90
19437;DHT22;9854;50.968;4.168;2023-10-31T01:55:19;11.60;99.90
19437;DHT22;9854;50.968;4.168;2023-10-31T01:57:45;11.60;99.90
19437;DHT22;9854;50.968;4.168;2023-10-31T02:00:13;11.60;99.90
19437;DHT22;9854;50.968;4.168;2023-10-31T02:02:40;11.70;99.90
19437;DHT22;9854;50.968;4.168;2023-10-31T02:05:10;11.50;99.90
19437;DHT22;9854;50.968;4.168;2023-10-31T02:07:35;11.50;99.90
19437;DHT22;9854;50.968;4.168;2023-10-31T02:10:01;11.60;99.90
19437;DHT22;9854;50.968;4.168;2023-10-31T02:12:34;11.50;99.90
19437;DHT22;9854;50.968;4.168;2023-10-31T02:15:00;11.50;99.90
19437;DHT22;9854;50.968;4.168;2023-10-31T02:17:26;11.40;99.90
19437;DHT22;9854;50.968;4.168;2023-10-31T02:19:52;11.40;99.90
19437;DHT22;9854;50.968;4.168;2023-10-31T02:22:18;11.50;99.90
19437;DHT22;9854;50.968;4.168;2023-10-31T02:24:43;11.50;99.90
19437;DHT22;9854;50.968;4.168;2023-10-31T02:27:09;11.50;99.90
19437;DHT22;9854;50.968;4.168;2023-10-31T02:29:35;11.60;99.90
19437;DHT22;9854;50.968;4.168;2023-10-31T02:32:00;11.50;99.90
19437;DHT22;9854;50.968;4.168;2023-10-31T02:34:26;11.50;99.90
19437;DHT22;9854;50.968;4.168;2023-10-31T02:36:52;11.50;99.90
19437;DHT22;9854;50.968;4.168;2023-10-31T02:39:17;11.40;99.90
19437;DHT22;9854;50.968;4.168;2023-10-31T02:41:43;11.30;99.90
19437;DHT22;9854;50.968;4.168;2023-10-31T02:44:09;11.20;99.90
19437;DHT22;9854;50.968;4.168;2023-10-31T02:46:38;11.30;99.90
19437;DHT22;9854;50.968;4.168;2023-10-31T02:49:04;11.30;99.90
19437;DHT22;9854;50.968;4.168;2023-10-31T02:51:29;11.30;99.90
19437;DHT22;9854;50.968;4.168;2023-10-31T02:53:55;11.30;99.90
19437;DHT22;9854;50.968;4.168;2023-10-31T02:56:21;11.20;99.90
19437;DHT22;9854;50.968;4.168;2023-10-31T02:58:46;11.20;99.90
19437;DHT22;9854;50.968;4.168;2023-10-31T03:01:12;11.20;99.90
19437;DHT22;9854;50.968;4.168;2023-10-31T03:03:37;11.20;99.90
19437;DHT22;9854;50.968;4.168;2023-10-31T03:06:05;11.20;99.90
19437;DHT22;9854;50.968;4.168;2023-10-31T03:08:30;11.20;99.90
19437;DHT22;9854;50.968;4.168;2023-10-31T03:10:56;11.10;99.90
19437;DHT22;9854;50.968;4.168;2023-10-31T03:13:22;11.00;99.90
19437;DHT22;9854;50.968;4.168;2023-10-31T03:15:48;11.00;99.90
19437;DHT22;9854;50.968;4.168;2023-10-31T03:18:14;10.90;99.90
19437;DHT22;9854;50.968;4.168;2023-10-31T03:20:42;10.90;99.90
19437;DHT22;9854;50.968;4.168;2023-10-31T03:23:08;10.90;99.90
19437;DHT22;9854;50.968;4.168;2023-10-31T03:25:34;10.90;99.90
19437;DHT22;9854;50.968;4.168;2023-10-31T03:27:59;10.90;99.90
19437;DHT22;9854;50.968;4.168;2023-10-31T03:30:25;10.90;99.90
19437;DHT22;9854;50.968;4.168;2023-10-31T03:32:51;10.90;99.90
19437;DHT22;9854;50.968;4.168;2023-10-31T03:35:16;10.80;99.90
19437;DHT22;9854;50.968;4.168;2023-10-31T03:37:42;10.70;99.90
19437;DHT22;9854;50.968;4.168;2023-10-31T03:40:08;10.70;99.90
19437;DHT22;9854;50.968;4.168;2023-10-31T03:42:34;10.70;99.90
19437;DHT22;9854;50.968;4.168;2023-10-31T03:45:00;10.60;99.90
19437;DHT22;9854;50.968;4.168;2023-10-31T03:47:25;10.50;99.90
19437;DHT22;9854;50.968;4.168;2023-10-31T03:49:51;10.50;99.90
19437;DHT22;9854;50.968;4.168;2023-10-31T03:52:16;10.50;99.90
19437;DHT22;9854;50.968;4.168;2023-10-31T03:54:43;10.50;99.90
19437;DHT22;9854;50.968;4.168;2023-10-31T03:57:08;10.50;99.90
19437;DHT22;9854;50.968;4.168;2023-10-31T03:59:34;10.40;99.90
19437;DHT22;9854;50.968;4.168;2023-10-31T04:02:02;10.50;99.90
19437;DHT22;9854;50.968;4.168;2023-10-31T04:04:27;10.60;99.90
19437;DHT22;9854;50.968;4.168;2023-10-31T04:06:53;10.60;99.90
19437;DHT22;9854;50.968;4.168;2023-10-31T04:09:19;10.50;99.90
19437;DHT22;9854;50.968;4.168;2023-10-31T04:11:45;10.50;99.90
19437;DHT22;9854;50.968;4.168;2023-10-31T04:14:10;10.40;99.90
19437;DHT22;9854;50.968;4.168;2023-10-31T04:16:41;10.50;99.90
19437;DHT22;9854;50.968;4.168;2023-10-31T04:19:11;10.50;99.90
19437;DHT22;9854;50.968;4.168;2023-10-31T04:21:38;10.40;99.90
19437;DHT22;9854;50.968;4.168;2023-10-31T04:24:04;10.50;99.90
19437;DHT22;9854;50.968;4.168;2023-10-31T04:26:29;10.40;99.90
19437;DHT22;9854;50.968;4.168;2023-10-31T04:28:55;10.40;99.90
19437;DHT22;9854;50.968;4.168;2023-10-31T04:31:21;10.40;99.90
19437;DHT22;9854;50.968;4.168;2023-10-31T04:33:46;10.30;99.90
19437;DHT22;9854;50.968;4.168;2023-10-31T04:36:12;10.30;99.90
19437;DHT22;9854;50.968;4.168;2023-10-31T04:38:38;10.20;99.90
19437;DHT22;9854;50.968;4.168;2023-10-31T04:41:03;10.40;99.90
19437;DHT22;9854;50.968;4.168;2023-10-31T04:43:29;10.40;99.90
19437;DHT22;9854;50.968;4.168;2023-10-31T04:45:55;10.40;99.90
19437;DHT22;9854;50.968;4.168;2023-10-31T04:48:21;10.40;99.90
19437;DHT22;9854;50.968;4.168;2023-10-31T04:50:46;10.30;99.90
19437;DHT22;9854;50.968;4.168;2023-10-31T04:53:12;10.30;99.90
19437;DHT22;9854;50.968;4.168;2023-10-31T04:55:37;10.30;99.90
19437;DHT22;9854;50.968;4.168;2023-10-31T04:58:03;10.30;99.90
19437;DHT22;9854;50.968;4.168;2023-10-31T05:00:29;10.30;99.90
19437;DHT22;9854;50.968;4.168;2023-10-31T05:02:55;10.30;99.90
19437;DHT22;9854;50.968;4.168;2023-10-31T05:05:22;10.40;99.90
19437;DHT22;9854;50.968;4.168;2023-10-31T05:07:47;10.40;99.90
19437;DHT22;9854;50.968;4.168;2023-10-31T05:10:13;10.30;99.90
19437;DHT22;9854;50.968;4.168;2023-10-31T05:12:39;10.40;99.90
19437;DHT22;9854;50.968;4.168;2023-10-31T05:15:05;10.50;99.90
19437;DHT22;9854;50.968;4.168;2023-10-31T05:17:31;10.40;99.90
19437;DHT22;9854;50.968;4.168;2023-10-31T05:19:56;10.30;99.90
19437;DHT22;9854;50.968;4.168;2023-10-31T05:22:22;10.30;99.90
19437;DHT22;9854;50.968;4.168;2023-10-31T05:24:47;10.20;99.90
19437;DHT22;9854;50.968;4.168;2023-10-31T05:27:13;10.30;99.90
19437;DHT22;9854;50.968;4.168;2023-10-31T05:29:39;10.30;99.90
19437;DHT22;9854;50.968;4.168;2023-10-31T05:32:05;10.30;99.90
19437;DHT22;9854;50.968;4.168;2023-10-31T05:34:31;10.30;99.90
19437;DHT22;9854;50.968;4.168;2023-10-31T05:36:56;10.30;99.90
19437;DHT22;9854;50.968;4.168;2023-10-31T05:39:22;10.30;99.90
19437;DHT22;9854;50.968;4.168;2023-10-31T05:41:48;10.40;99.90
19437;DHT22;9854;50.968;4.168;2023-10-31T05:44:13;10.30;99.90
19437;DHT22;9854;50.968;4.168;2023-10-31T05:46:39;10.30;99.90
19437;DHT22;9854;50.968;4.168;2023-10-31T05:49:08;10.30;99.90
19437;DHT22;9854;50.968;4.168;2023-10-31T05:51:34;10.30;99.90
19437;DHT22;9854;50.968;4.168;2023-10-31T05:54:01;10.30;99.90
19437;DHT22;9854;50.968;4.168;2023-10-31T05:56:27;10.30;99.90
19437;DHT22;9854;50.968;4.168;2023-10-31T05:58:53;10.30;99.90
19437;DHT22;9854;50.968;4.168;2023-10-31T06:01:18;10.30;99.90
19437;DHT22;9854;50.968;4.168;2023-10-31T06:03:44;10.20;99.90
19437;DHT22;9854;50.968;4.168;2023-10-31T06:06:10;10.20;99.90
19437;DHT22;9854;50.968;4.168;2023-10-31T06:08:37;10.30;99.90
19437;DHT22;9854;50.968;4.168;2023-10-31T06:11:03;10.30;99.90
19437;DHT22;9854;50.968;4.168;2023-10-31T06:13:29;10.40;99.90
19437;DHT22;9854;50.968;4.168;2023-10-31T06:15:56;10.50;99.90
19437;DHT22;9854;50.968;4.168;2023-10-31T06:18:23;10.50;99.90
19437;DHT22;9854;50.968;4.168;2023-10-31T06:20:49;10.30;99.90
19437;DHT22;9854;50.968;4.168;2023-10-31T06:23:15;10.40;99.90
19437;DHT22;9854;50.968;4.168;2023-10-31T06:25:40;10.40;99.90
19437;DHT22;9854;50.968;4.168;2023-10-31T06:28:06;10.40;99.90
19437;DHT22;9854;50.968;4.168;2023-10-31T06:30:31;10.60;99.90
19437;DHT22;9854;50.968;4.168;2023-10-31T06:32:58;10.60;99.90
19437;DHT22;9854;50.968;4.168;2023-10-31T06:35:24;10.60;99.90
19437;DHT22;9854;50.968;4.168;2023-10-31T06:37:54;10.50;99.90
19437;DHT22;9854;50.968;4.168;2023-10-31T06:40:20;10.50;99.90
19437;DHT22;9854;50.968;4.168;2023-10-31T06:42:46;10.50;99.90
19437;DHT22;9854;50.968;4.168;2023-10-31T06:45:12;10.40;99.90
19437;DHT22;9854;50.968;4.168;2023-10-31T06:47:37;10.40;99.90
19437;DHT22;9854;50.968;4.168;2023-10-31T06:50:03;10.40;99.90
19437;DHT22;9854;50.968;4.168;2023-10-31T06:52:29;10.40;99.90
19437;DHT22;9854;50.968;4.168;2023-10-31T06:54:54;10.60;99.90
19437;DHT22;9854;50.968;4.168;2023-10-31T06:57:20;10.60;99.90
19437;DHT22;9854;50.968;4.168;2023-10-31T06:59:45;10.60;99.90
19437;DHT22;9854;50.968;4.168;2023-10-31T07:02:12;10.60;99.90
19437;DHT22;9854;50.968;4.168;2023-10-31T07:04:37;10.70;99.90
19437;DHT22;9854;50.968;4.168;2023-10-31T07:07:03;10.80;99.90
19437;DHT22;9854;50.968;4.168;2023-10-31T07:09:29;10.80;99.90
19437;DHT22;9854;50.968;4.168;2023-10-31T07:11:54;10.70;99.90
19437;DHT22;9854;50.968;4.168;2023-10-31T07:14:20;10.60;99.90
19437;DHT22;9854;50.968;4.168;2023-10-31T07:16:47;10.70;99.90
19437;DHT22;9854;50.968;4.168;2023-10-31T07:19:14;10.80;99.90
19437;DHT22;9854;50.968;4.168;2023-10-31T07:21:40;10.80;99.90
19437;DHT22;9854;50.968;4.168;2023-10-31T07:24:06;10.80;99.90
19437;DHT22;9854;50.968;4.168;2023-10-31T07:26:34;10.80;99.90
19437;DHT22;9854;50.968;4.168;2023-10-31T07:29:00;10.80;99.90
19437;DHT22;9854;50.968;4.168;2023-10-31T07:31:25;10.70;99.90
19437;DHT22;9854;50.968;4.168;2023-10-31T07:33:51;10.80;99.90
19437;DHT22;9854;50.968;4.168;2023-10-31T07:36:17;10.90;99.90
19437;DHT22;9854;50.968;4.168;2023-10-31T07:38:42;11.00;99.90
19437;DHT22;9854;50.968;4.168;2023-10-31T07:41:08;11.10;99.90
19437;DHT22;9854;50.968;4.168;2023-10-31T07:43:34;10.90;99.90
19437;DHT22;9854;50.968;4.168;2023-10-31T07:46:00;10.90;99.90
19437;DHT22;9854;50.968;4.168;2023-10-31T07:48:25;11.10;99.90
19437;DHT22;9854;50.968;4.168;2023-10-31T07:50:51;11.20;99.90
19437;DHT22;9854;50.968;4.168;2023-10-31T07:53:17;11.30;99.90
19437;DHT22;9854;50.968;4.168;2023-10-31T07:55:42;11.20;99.90
19437;DHT22;9854;50.968;4.168;2023-10-31T07:58:08;11.30;99.90
19437;DHT22;9854;50.968;4.168;2023-10-31T08:00:38;11.40;99.90
19437;DHT22;9854;50.968;4.168;2023-10-31T08:03:04;11.40;99.90
19437;DHT22;9854;50.968;4.168;2023-10-31T08:05:30;11.50;99.90
19437;DHT22;9854;50.968;4.168;2023-10-31T08:07:56;11.40;99.90
19437;DHT22;9854;50.968;4.168;2023-10-31T08:10:21;11.40;99.90
19437;DHT22;9854;50.968;4.168;2023-10-31T08:12:47;11.40;99.90
19437;DHT22;9854;50.968;4.168;2023-10-31T08:15:12;11.40;99.90
19437;DHT22;9854;50.968;4.168;2023-10-31T08:17:39;11.40;99.90
19437;DHT22;9854;50.968;4.168;2023-10-31T08:20:05;11.40;99.90
19437;DHT22;9854;50.968;4.168;2023-10-31T08:22:31;11.40;99.90
19437;DHT22;9854;50.968;4.168;2023-10-31T08:24:57;11.30;99.90
19437;DHT22;9854;50.968;4.168;2023-10-31T08:27:23;11.20;99.90
19437;DHT22;9854;50.968;4.168;2023-10-31T08:29:48;11.30;99.90
19437;DHT22;9854;50.968;4.168;2023-10-31T08:32:14;11.20;99.90
19437;DHT22;9854;50.968;4.168;2023-10-31T08:34:39;11.20;99.90
19437;DHT22;9854;50.968;4.168;2023-10-31T08:37:05;11.20;99.90
19437;DHT22;9854;50.968;4.168;2023-10-31T08:39:31;11.20;99.90
19437;DHT22;9854;50.968;4.168;2023-10-31T08:41:57;11.30;99.90
19437;DHT22;9854;50.968;4.168;2023-10-31T08:44:24;11.30;99.90
19437;DHT22;9854;50.968;4.168;2023-10-31T08:46:50;11.40;99.90
19437;DHT22;9854;50.968;4.168;2023-10-31T08:49:16;11.40;99.90
19437;DHT22;9854;50.968;4.168;2023-10-31T08:51:42;11.60;99.90
19437;DHT22;9854;50.968;4.168;2023-10-31T08:54:09;11.80;99.90
19437;DHT22;9854;50.968;4.168;2023-10-31T08:56:35;11.80;99.90
19437;DHT22;9854;50.968;4.168;2023-10-31T08:59:01;12.00;99.90
19437;DHT22;9854;50.968;4.168;2023-10-31T09:01:27;12.30;99.90
19437;DHT22;9854;50.968;4.168;2023-10-31T09:03:54;12.20;99.90
19437;DHT22;9854;50.968;4.168;2023-10-31T09:06:20;12.10;99.90
19437;DHT22;9854;50.968;4.168;2023-10-31T09:08:45;11.90;99.90
19437;DHT22;9854;50.968;4.168;2023-10-31T09:11:11;11.90;99.90
19437;DHT22;9854;50.968;4.168;2023-10-31T09:13:37;11.80;99.90
19437;DHT22;9854;50.968;4.168;2023-10-31T09:16:03;11.80;99.90
19437;DHT22;9854;50.968;4.168;2023-10-31T09:18:28;11.90;99.90
19437;DHT22;9854;50.968;4.168;2023-10-31T09:20:54;12.00;99.90
19437;DHT22;9854;50.968;4.168;2023-10-31T09:23:20;11.90;99.90
19437;DHT22;9854;50.968;4.168;2023-10-31T09:25:46;12.00;99.90
19437;DHT22;9854;50.968;4.168;2023-10-31T09:28:12;12.00;99.90
19437;DHT22;9854;50.968;4.168;2023-10-31T09:30:37;12.20;99.90
19437;DHT22;9854;50.968;4.168;2023-10-31T09:33:03;12.20;99.90
19437;DHT22;9854;50.968;4.168;2023-10-31T09:35:29;12.20;99.90
19437;DHT22;9854;50.968;4.168;2023-10-31T09:37:55;12.10;99.90
19437;DHT22;9854;50.968;4.168;2023-10-31T09:40:21;12.20;99.90
19437;DHT22;9854;50.968;4.168;2023-10-31T09:42:48;12.20;99.90
19437;DHT22;9854;50.968;4.168;2023-10-31T09:45:15;12.00;99.90
19437;DHT22;9854;50.968;4.168;2023-10-31T09:47:41;12.00;99.90
19437;DHT22;9854;50.968;4.168;2023-10-31T09:50:10;12.00;99.90
19437;DHT22;9854;50.968;4.168;2023-10-31T09:52:36;12.00;99.90
19437;DHT22;9854;50.968;4.168;2023-10-31T09:55:02;12.00;99.90
19437;DHT22;9854;50.968;4.168;2023-10-31T09:57:29;11.90;99.90
19437;DHT22;9854;50.968;4.168;2023-10-31T09:59:54;12.00;99.90
19437;DHT22;9854;50.968;4.168;2023-10-31T10:02:20;12.00;99.90
19437;DHT22;9854;50.968;4.168;2023-10-31T10:04:47;12.00;99.90
19437;DHT22;9854;50.968;4.168;2023-10-31T10:07:18;11.80;99.90
19437;DHT22;9854;50.968;4.168;2023-10-31T10:09:45;12.00;99.90
19437;DHT22;9854;50.968;4.168;2023-10-31T10:12:16;12.20;99.90
19437;DHT22;9854;50.968;4.168;2023-10-31T10:14:44;12.20;99.90
19437;DHT22;9854;50.968;4.168;2023-10-31T10:17:23;12.10;99.90
19437;DHT22;9854;50.968;4.168;2023-10-31T10:22:31;12.20;99.90
19437;DHT22;9854;50.968;4.168;2023-10-31T10:24:57;12.30;99.90
19437;DHT22;9854;50.968;4.168;2023-10-31T10:27:23;12.30;99.90
19437;DHT22;9854;50.968;4.168;2023-10-31T10:29:53;12.20;99.90
19437;DHT22;9854;50.968;4.168;2023-10-31T10:32:19;12.40;99.90
19437;DHT22;9854;50.968;4.168;2023-10-31T10:34:45;12.50;99.90
19437;DHT22;9854;50.968;4.168;2023-10-31T10:37:11;12.40;99.90
19437;DHT22;9854;50.968;4.168;2023-10-31T10:39:39;12.30;99.90
19437;DHT22;9854;50.968;4.168;2023-10-31T10:42:09;12.20;99.90
19437;DHT22;9854;50.968;4.168;2023-10-31T10:44:36;12.20;99.90
19437;DHT22;9854;50.968;4.168;2023-10-31T10:47:04;12.20;99.90
19437;DHT22;9854;50.968;4.168;2023-10-31T10:49:33;12.40;99.90
19437;DHT22;9854;50.968;4.168;2023-10-31T10:54:37;12.50;99.90
19437;DHT22;9854;50.968;4.168;2023-10-31T11:00:02;12.50;99.90
19437;DHT22;9854;50.968;4.168;2023-10-31T11:02:29;12.70;99.90
19437;DHT22;9854;50.968;4.168;2023-10-31T11:04:56;12.60;99.90
19437;DHT22;9854;50.968;4.168;2023-10-31T11:07:22;12.70;99.90
19437;DHT22;9854;50.968;4.168;2023-10-31T11:09:49;12.80;99.90
19437;DHT22;9854;50.968;4.168;2023-10-31T11:12:15;12.90;99.90
19437;DHT22;9854;50.968;4.168;2023-10-31T11:14:42;12.80;99.90
19437;DHT22;9854;50.968;4.168;2023-10-31T11:17:31;12.60;99.90
19437;DHT22;9854;50.968;4.168;2023-10-31T11:19:57;12.50;99.90
19437;DHT22;9854;50.968;4.168;2023-10-31T11:22:23;12.40;99.90
19437;DHT22;9854;50.968;4.168;2023-10-31T11:24:50;12.40;99.90
19437;DHT22;9854;50.968;4.168;2023-10-31T11:27:17;12.60;99.90
19437;DHT22;9854;50.968;4.168;2023-10-31T11:29:43;12.40;99.90
19437;DHT22;9854;50.968;4.168;2023-10-31T11:32:12;12.30;99.90
19437;DHT22;9854;50.968;4.168;2023-10-31T11:34:39;12.20;99.90
19437;DHT22;9854;50.968;4.168;2023-10-31T11:42:43;12.10;99.90
19437;DHT22;9854;50.968;4.168;2023-10-31T11:45:10;12.10;99.90
19437;DHT22;9854;50.968;4.168;2023-10-31T11:47:51;12.00;99.90
19437;DHT22;9854;50.968;4.168;2023-10-31T11:50:17;11.90;99.90
19437;DHT22;9854;50.968;4.168;2023-10-31T11:52:44;12.10;99.90
19437;DHT22;9854;50.968;4.168;2023-10-31T11:55:12;12.20;99.90
19437;DHT22;9854;50.968;4.168;2023-10-31T11:57:39;12.30;99.90
19437;DHT22;9854;50.968;4.168;2023-10-31T12:00:05;12.30;99.90
19437;DHT22;9854;50.968;4.168;2023-10-31T12:02:32;12.30;99.90
19437;DHT22;9854;50.968;4.168;2023-10-31T12:05:12;12.20;99.90
19437;DHT22;9854;50.968;4.168;2023-10-31T12:07:43;12.30;99.90
19437;DHT22;9854;50.968;4.168;2023-10-31T12:10:08;12.20;99.90
19437;DHT22;9854;50.968;4.168;2023-10-31T12:12:35;12.10;99.90
19437;DHT22;9854;50.968;4.168;2023-10-31T12:15:10;12.20;99.90
19437;DHT22;9854;50.968;4.168;2023-10-31T12:17:36;12.10;99.90
19437;DHT22;9854;50.968;4.168;2023-10-31T12:20:06;12.10;99.90
19437;DHT22;9854;50.968;4.168;2023-10-31T12:22:32;12.20;99.90
19437;DHT22;9854;50.968;4.168;2023-10-31T12:25:06;12.20;99.90
19437;DHT22;9854;50.968;4.168;2023-10-31T12:27:48;12.40;99.90
19437;DHT22;9854;50.968;4.168;2023-10-31T12:30:19;12.70;99.90
19437;DHT22;9854;50.968;4.168;2023-10-31T12:32:52;12.60;99.90
19437;DHT22;9854;50.968;4.168;2023-10-31T12:35:21;12.40;99.90
19437;DHT22;9854;50.968;4.168;2023-10-31T12:37:48;12.50;99.90
19437;DHT22;9854;50.968;4.168;2023-10-31T12:40:17;12.50;99.90
19437;DHT22;9854;50.968;4.168;2023-10-31T12:42:44;12.80;99.90
19437;DHT22;9854;50.968;4.168;2023-10-31T12:45:11;12.90;99.90
19437;DHT22;9854;50.968;4.168;2023-10-31T12:47:37;13.10;99.90
19437;DHT22;9854;50.968;4.168;2023-10-31T12:50:07;13.10;99.90
19437;DHT22;9854;50.968;4.168;2023-10-31T12:55:15;13.20;99.90
19437;DHT22;9854;50.968;4.168;2023-10-31T12:57:42;13.30;99.90
19437;DHT22;9854;50.968;4.168;2023-10-31T13:00:08;13.20;99.90
19437;DHT22;9854;50.968;4.168;2023-10-31T13:02:36;13.20;99.90
19437;DHT22;9854;50.968;4.168;2023-10-31T13:05:15;13.00;99.90
19437;DHT22;9854;50.968;4.168;2023-10-31T13:07:50;12.80;99.90
19437;DHT22;9854;50.968;4.168;2023-10-31T13:10:18;12.70;99.90
19437;DHT22;9854;50.968;4.168;2023-10-31T13:12:47;12.60;99.90
19437;DHT22;9854;50.968;4.168;2023-10-31T13:15:19;12.70;99.90
19437;DHT22;9854;50.968;4.168;2023-10-31T13:17:45;12.80;99.90
19437;DHT22;9854;50.968;4.168;2023-10-31T13:20:12;12.90;99.90
19437;DHT22;9854;50.968;4.168;2023-10-31T13:22:39;12.90;99.90
19437;DHT22;9854;50.968;4.168;2023-10-31T13:25:07;12.80;99.90
19437;DHT22;9854;50.968;4.168;2023-10-31T13:27:35;12.80;99.90
19437;DHT22;9854;50.968;4.168;2023-10-31T13:30:02;12.90;99.90
19437;DHT22;9854;50.968;4.168;2023-10-31T13:32:28;13.00;99.90
19437;DHT22;9854;50.968;4.168;2023-10-31T13:34:53;13.00;99.90
19437;DHT22;9854;50.968;4.168;2023-10-31T13:37:19;13.00;99.90
19437;DHT22;9854;50.968;4.168;2023-10-31T13:39:45;13.20;99.90
19437;DHT22;9854;50.968;4.168;2023-10-31T13:42:11;13.40;99.90
19437;DHT22;9854;50.968;4.168;2023-10-31T13:44:37;13.60;99.90
19437;DHT22;9854;50.968;4.168;2023-10-31T13:47:03;13.50;99.90
19437;DHT22;9854;50.968;4.168;2023-10-31T13:49:29;13.40;99.90
19437;DHT22;9854;50.968;4.168;2023-10-31T13:51:55;13.60;99.90
19437;DHT22;9854;50.968;4.168;2023-10-31T13:54:20;13.60;99.90
19437;DHT22;9854;50.968;4.168;2023-10-31T13:56:47;13.70;99.90
19437;DHT22;9854;50.968;4.168;2023-10-31T13:59:13;13.80;99.90
19437;DHT22;9854;50.968;4.168;2023-10-31T14:01:38;13.80;99.90
19437;DHT22;9854;50.968;4.168;2023-10-31T14:04:06;13.80;99.90
19437;DHT22;9854;50.968;4.168;2023-10-31T14:06:32;13.90;99.90
19437;DHT22;9854;50.968;4.168;2023-10-31T14:09:00;14.00;99.90
19437;DHT22;9854;50.968;4.168;2023-10-31T14:11:30;14.00;99.90
19437;DHT22;9854;50.968;4.168;2023-10-31T14:13:56;13.80;99.90
19437;DHT22;9854;50.968;4.168;2023-10-31T14:16:25;13.80;99.90
19437;DHT22;9854;50.968;4.168;2023-10-31T14:18:51;13.80;99.90
19437;DHT22;9854;50.968;4.168;2023-10-31T14:21:16;13.90;99.90
19437;DHT22;9854;50.968;4.168;2023-10-31T14:23:42;13.80;99.90
19437;DHT22;9854;50.968;4.168;2023-10-31T14:26:08;13.90;99.90
19437;DHT22;9854;50.968;4.168;2023-10-31T14:28:33;14.00;99.90
19437;DHT22;9854;50.968;4.168;2023-10-31T14:31:00;14.10;99.90
19437;DHT22;9854;50.968;4.168;2023-10-31T14:33:25;14.40;99.90
19437;DHT22;9854;50.968;4.168;2023-10-31T14:35:51;14.40;99.90
19437;DHT22;9854;50.968;4.168;2023-10-31T14:38:16;14.70;99.90
19437;DHT22;9854;50.968;4.168;2023-10-31T14:40:42;14.90;99.90
19437;DHT22;9854;50.968;4.168;2023-10-31T14:43:08;14.80;99.90
19437;DHT22;9854;50.968;4.168;2023-10-31T14:45:33;14.90;99.90
19437;DHT22;9854;50.968;4.168;2023-10-31T14:47:59;14.80;99.90
19437;DHT22;9854;50.968;4.168;2023-10-31T14:50:24;14.60;99.90
19437;DHT22;9854;50.968;4.168;2023-10-31T14:52:50;14.60;99.90
19437;DHT22;9854;50.968;4.168;2023-10-31T14:55:16;14.20;99.90
19437;DHT22;9854;50.968;4.168;2023-10-31T14:57:42;14.10;99.90
19437;DHT22;9854;50.968;4.168;2023-10-31T15:00:08;14.00;99.90
19437;DHT22;9854;50.968;4.168;2023-10-31T15:02:35;13.90;99.90
19437;DHT22;9854;50.968;4.168;2023-10-31T15:05:01;14.20;99.90
19437;DHT22;9854;50.968;4.168;2023-10-31T15:07:29;14.00;99.90
19437;DHT22;9854;50.968;4.168;2023-10-31T15:09:55;14.10;99.90
19437;DHT22;9854;50.968;4.168;2023-10-31T15:12:20;14.20;99.90
19437;DHT22;9854;50.968;4.168;2023-10-31T15:14:46;14.30;99.90
19437;DHT22;9854;50.968;4.168;2023-10-31T15:17:12;14.20;99.90
19437;DHT22;9854;50.968;4.168;2023-10-31T15:19:37;14.30;99.90
19437;DHT22;9854;50.968;4.168;2023-10-31T15:22:03;14.20;99.90
19437;DHT22;9854;50.968;4.168;2023-10-31T15:24:29;14.00;99.90
19437;DHT22;9854;50.968;4.168;2023-10-31T15:26:56;14.10;99.90
19437;DHT22;9854;50.968;4.168;2023-10-31T15:29:22;14.10;99.90
19437;DHT22;9854;50.968;4.168;2023-10-31T15:31:48;14.00;99.90
19437;DHT22;9854;50.968;4.168;2023-10-31T15:34:19;14.00;99.90
19437;DHT22;9854;50.968;4.168;2023-10-31T15:36:45;14.00;99.90
19437;DHT22;9854;50.968;4.168;2023-10-31T15:39:10;13.90;99.90
19437;DHT22;9854;50.968;4.168;2023-10-31T15:41:36;13.70;99.90
19437;DHT22;9854;50.968;4.168;2023-10-31T15:44:02;13.80;99.90
19437;DHT22;9854;50.968;4.168;2023-10-31T15:46:29;13.80;99.90
19437;DHT22;9854;50.968;4.168;2023-10-31T15:48:54;13.90;99.90
19437;DHT22;9854;50.968;4.168;2023-10-31T15:51:20;13.80;99.90
19437;DHT22;9854;50.968;4.168;2023-10-31T15:53:46;13.90;99.90
19437;DHT22;9854;50.968;4.168;2023-10-31T15:56:11;13.80;99.90